sensor_id;sensor_type;location;lat;lon;timestamp;P1;durP1;ratioP1;P2;durP2;ratioP2
3423;SDS011;72707;50.120;8.500;2024-02-21T00:00:45;30.17;;;10.53;;
3423;SDS011;72707;50.120;8.500;2024-02-21T00:03:11;10.07;;;5.20;;
3423;SDS011;72707;50.120;8.500;2024-02-21T00:05:37;8.60;;;3.77;;
3423;SDS011;72707;50.120;8.500;2024-02-21T00:08:03;17.27;;;6.40;;
3423;SDS011;72707;50.120;8.500;2024-02-21T00:10:29;28.10;;;8.23;;
3423;SDS011;72707;50.120;8.500;2024-02-21T00:12:57;16.90;;;5.90;;
3423;SDS011;72707;50.120;8.500;2024-02-21T00:15:24;10.90;;;4.43;;
3423;SDS011;72707;50.120;8.500;2024-02-21T00:17:50;11.50;;;4.77;;
3423;SDS011;72707;50.120;8.500;2024-02-21T00:20:16;15.80;;;6.17;;
3423;SDS011;72707;50.120;8.500;2024-02-21T00:22:42;15.53;;;6.53;;
3423;SDS011;72707;50.120;8.500;2024-02-21T00:25:08;10.03;;;4.13;;
3423;SDS011;72707;50.120;8.500;2024-02-21T00:27:34;10.87;;;4.47;;
3423;SDS011;72707;50.120;8.500;2024-02-21T00:30:00;22.97;;;7.87;;
3423;SDS011;72707;50.120;8.500;2024-02-21T00:32:26;18.77;;;6.80;;
3423;SDS011;72707;50.120;8.500;2024-02-21T00:34:51;10.77;;;4.53;;
3423;SDS011;72707;50.120;8.500;2024-02-21T00:37:17;14.07;;;4.13;;
3423;SDS011;72707;50.120;8.500;2024-02-21T00:39:43;25.47;;;17.67;;
3423;SDS011;72707;50.120;8.500;2024-02-21T00:42:09;23.80;;;8.70;;
3423;SDS011;72707;50.120;8.500;2024-02-21T00:44:35;16.73;;;4.90;;
3423;SDS011;72707;50.120;8.500;2024-02-21T00:47:01;18.57;;;16.63;;
3423;SDS011;72707;50.120;8.500;2024-02-21T00:49:27;23.07;;;7.13;;
3423;SDS011;72707;50.120;8.500;2024-02-21T00:51:53;24.93;;;8.73;;
3423;SDS011;72707;50.120;8.500;2024-02-21T00:54:18;15.20;;;6.67;;
3423;SDS011;72707;50.120;8.500;2024-02-21T00:56:44;7.87;;;4.73;;
3423;SDS011;72707;50.120;8.500;2024-02-21T00:59:10;25.70;;;22.10;;
3423;SDS011;72707;50.120;8.500;2024-02-21T01:01:36;22.80;;;8.67;;
3423;SDS011;72707;50.120;8.500;2024-02-21T01:04:02;25.80;;;9.10;;
3423;SDS011;72707;50.120;8.500;2024-02-21T01:06:28;6.40;;;5.13;;
3423;SDS011;72707;50.120;8.500;2024-02-21T01:08:54;14.77;;;5.77;;
3423;SDS011;72707;50.120;8.500;2024-02-21T01:11:20;43.53;;;32.23;;
3423;SDS011;72707;50.120;8.500;2024-02-21T01:13:46;22.40;;;8.17;;
3423;SDS011;72707;50.120;8.500;2024-02-21T01:16:12;9.37;;;4.80;;
3423;SDS011;72707;50.120;8.500;2024-02-21T01:18:38;14.13;;;6.47;;
3423;SDS011;72707;50.120;8.500;2024-02-21T01:21:04;36.10;;;23.33;;
3423;SDS011;72707;50.120;8.500;2024-02-21T01:23:35;25.40;;;9.70;;
3423;SDS011;72707;50.120;8.500;2024-02-21T01:26:01;14.50;;;4.97;;
3423;SDS011;72707;50.120;8.500;2024-02-21T01:28:27;11.87;;;4.23;;
3423;SDS011;72707;50.120;8.500;2024-02-21T01:30:52;27.03;;;9.33;;
3423;SDS011;72707;50.120;8.500;2024-02-21T01:33:18;30.07;;;9.07;;
3423;SDS011;72707;50.120;8.500;2024-02-21T01:35:44;19.40;;;6.73;;
3423;SDS011;72707;50.120;8.500;2024-02-21T01:38:12;7.57;;;4.40;;
3423;SDS011;72707;50.120;8.500;2024-02-21T01:40:38;14.60;;;5.33;;
3423;SDS011;72707;50.120;8.500;2024-02-21T01:43:14;17.73;;;6.60;;
3423;SDS011;72707;50.120;8.500;2024-02-21T01:45:40;13.53;;;6.67;;
3423;SDS011;72707;50.120;8.500;2024-02-21T01:48:06;18.33;;;7.60;;
3423;SDS011;72707;50.120;8.500;2024-02-21T01:50:32;22.23;;;7.87;;
3423;SDS011;72707;50.120;8.500;2024-02-21T01:52:58;23.77;;;21.90;;
3423;SDS011;72707;50.120;8.500;2024-02-21T01:55:24;11.53;;;6.57;;
3423;SDS011;72707;50.120;8.500;2024-02-21T01:57:50;22.30;;;7.53;;
3423;SDS011;72707;50.120;8.500;2024-02-21T02:00:16;18.93;;;15.17;;
3423;SDS011;72707;50.120;8.500;2024-02-21T02:02:42;10.13;;;5.13;;
3423;SDS011;72707;50.120;8.500;2024-02-21T02:07:50;24.20;;;6.70;;
3423;SDS011;72707;50.120;8.500;2024-02-21T02:10:16;7.90;;;5.13;;
3423;SDS011;72707;50.120;8.500;2024-02-21T02:12:42;14.53;;;13.40;;
3423;SDS011;72707;50.120;8.500;2024-02-21T02:15:08;14.83;;;5.40;;
3423;SDS011;72707;50.120;8.500;2024-02-21T02:17:35;12.73;;;11.63;;
3423;SDS011;72707;50.120;8.500;2024-02-21T02:20:01;10.30;;;4.20;;
3423;SDS011;72707;50.120;8.500;2024-02-21T02:22:30;9.90;;;4.60;;
3423;SDS011;72707;50.120;8.500;2024-02-21T02:25:00;22.07;;;19.93;;
3423;SDS011;72707;50.120;8.500;2024-02-21T02:27:27;7.67;;;4.33;;
3423;SDS011;72707;50.120;8.500;2024-02-21T02:29:56;13.47;;;5.03;;
3423;SDS011;72707;50.120;8.500;2024-02-21T02:32:28;13.30;;;4.37;;
3423;SDS011;72707;50.120;8.500;2024-02-21T02:35:00;10.23;;;4.60;;
3423;SDS011;72707;50.120;8.500;2024-02-21T02:37:25;18.93;;;16.23;;
3423;SDS011;72707;50.120;8.500;2024-02-21T02:39:54;13.80;;;12.47;;
3423;SDS011;72707;50.120;8.500;2024-02-21T02:42:23;11.93;;;4.47;;
3423;SDS011;72707;50.120;8.500;2024-02-21T02:44:49;11.37;;;4.83;;
3423;SDS011;72707;50.120;8.500;2024-02-21T02:47:15;11.00;;;4.80;;
3423;SDS011;72707;50.120;8.500;2024-02-21T02:49:43;15.07;;;13.67;;
3423;SDS011;72707;50.120;8.500;2024-02-21T02:52:15;9.33;;;5.20;;
3423;SDS011;72707;50.120;8.500;2024-02-21T02:54:47;21.47;;;19.30;;
3423;SDS011;72707;50.120;8.500;2024-02-21T02:57:17;14.03;;;5.47;;
3423;SDS011;72707;50.120;8.500;2024-02-21T03:02:26;6.77;;;4.60;;
3423;SDS011;72707;50.120;8.500;2024-02-21T03:04:52;12.30;;;6.07;;
3423;SDS011;72707;50.120;8.500;2024-02-21T03:07:19;20.47;;;18.67;;
3423;SDS011;72707;50.120;8.500;2024-02-21T03:09:45;12.03;;;4.57;;
3423;SDS011;72707;50.120;8.500;2024-02-21T03:12:11;7.93;;;4.77;;
3423;SDS011;72707;50.120;8.500;2024-02-21T03:14:37;22.70;;;21.00;;
3423;SDS011;72707;50.120;8.500;2024-02-21T03:17:03;19.03;;;17.33;;
3423;SDS011;72707;50.120;8.500;2024-02-21T03:19:30;8.77;;;4.07;;
3423;SDS011;72707;50.120;8.500;2024-02-21T03:21:55;8.00;;;5.27;;
3423;SDS011;72707;50.120;8.500;2024-02-21T03:24:21;6.33;;;4.83;;
3423;SDS011;72707;50.120;8.500;2024-02-21T03:26:47;9.87;;;6.67;;
3423;SDS011;72707;50.120;8.500;2024-02-21T03:29:14;16.10;;;6.83;;
3423;SDS011;72707;50.120;8.500;2024-02-21T03:31:40;11.87;;;5.50;;
3423;SDS011;72707;50.120;8.500;2024-02-21T03:34:06;21.90;;;20.27;;
3423;SDS011;72707;50.120;8.500;2024-02-21T03:36:31;26.93;;;24.53;;
3423;SDS011;72707;50.120;8.500;2024-02-21T03:38:57;22.80;;;20.50;;
3423;SDS011;72707;50.120;8.500;2024-02-21T03:41:23;28.73;;;11.73;;
3423;SDS011;72707;50.120;8.500;2024-02-21T03:43:49;21.17;;;18.93;;
3423;SDS011;72707;50.120;8.500;2024-02-21T03:46:15;23.07;;;21.23;;
3423;SDS011;72707;50.120;8.500;2024-02-21T03:48:41;12.17;;;6.00;;
3423;SDS011;72707;50.120;8.500;2024-02-21T03:51:06;18.40;;;12.47;;
3423;SDS011;72707;50.120;8.500;2024-02-21T03:53:32;11.80;;;3.60;;
3423;SDS011;72707;50.120;8.500;2024-02-21T03:56:01;9.03;;;4.30;;
3423;SDS011;72707;50.120;8.500;2024-02-21T03:58:30;11.73;;;4.30;;
3423;SDS011;72707;50.120;8.500;2024-02-21T04:00:56;9.90;;;4.47;;
3423;SDS011;72707;50.120;8.500;2024-02-21T04:03:22;8.93;;;4.10;;
3423;SDS011;72707;50.120;8.500;2024-02-21T04:05:48;11.47;;;4.17;;
3423;SDS011;72707;50.120;8.500;2024-02-21T04:08:13;5.40;;;3.60;;
3423;SDS011;72707;50.120;8.500;2024-02-21T04:10:39;13.07;;;9.00;;
3423;SDS011;72707;50.120;8.500;2024-02-21T04:13:06;14.57;;;5.20;;
3423;SDS011;72707;50.120;8.500;2024-02-21T04:15:31;13.83;;;6.70;;
3423;SDS011;72707;50.120;8.500;2024-02-21T04:17:57;15.27;;;6.03;;
3423;SDS011;72707;50.120;8.500;2024-02-21T04:20:22;13.97;;;5.83;;
3423;SDS011;72707;50.120;8.500;2024-02-21T04:22:48;5.13;;;3.87;;
3423;SDS011;72707;50.120;8.500;2024-02-21T04:25:14;3.73;;;3.13;;
3423;SDS011;72707;50.120;8.500;2024-02-21T04:27:40;7.43;;;4.37;;
3423;SDS011;72707;50.120;8.500;2024-02-21T04:30:06;11.50;;;7.17;;
3423;SDS011;72707;50.120;8.500;2024-02-21T04:32:32;7.30;;;4.07;;
3423;SDS011;72707;50.120;8.500;2024-02-21T04:34:58;13.13;;;11.97;;
3423;SDS011;72707;50.120;8.500;2024-02-21T04:37:24;16.87;;;15.37;;
3423;SDS011;72707;50.120;8.500;2024-02-21T04:39:50;8.63;;;4.93;;
3423;SDS011;72707;50.120;8.500;2024-02-21T04:42:16;29.00;;;26.40;;
3423;SDS011;72707;50.120;8.500;2024-02-21T04:44:42;10.97;;;5.90;;
3423;SDS011;72707;50.120;8.500;2024-02-21T04:47:08;10.83;;;4.73;;
3423;SDS011;72707;50.120;8.500;2024-02-21T04:49:34;11.03;;;5.13;;
3423;SDS011;72707;50.120;8.500;2024-02-21T04:52:00;12.40;;;8.00;;
3423;SDS011;72707;50.120;8.500;2024-02-21T04:54:26;9.30;;;7.23;;
3423;SDS011;72707;50.120;8.500;2024-02-21T04:57:01;14.93;;;5.93;;
3423;SDS011;72707;50.120;8.500;2024-02-21T04:59:27;12.93;;;11.63;;
3423;SDS011;72707;50.120;8.500;2024-02-21T05:01:54;16.47;;;8.33;;
3423;SDS011;72707;50.120;8.500;2024-02-21T05:04:20;11.20;;;7.27;;
3423;SDS011;72707;50.120;8.500;2024-02-21T05:06:46;12.90;;;10.20;;
3423;SDS011;72707;50.120;8.500;2024-02-21T05:09:12;13.13;;;8.63;;
3423;SDS011;72707;50.120;8.500;2024-02-21T05:11:38;36.30;;;33.00;;
3423;SDS011;72707;50.120;8.500;2024-02-21T05:16:39;24.80;;;22.70;;
3423;SDS011;72707;50.120;8.500;2024-02-21T05:19:05;11.23;;;6.73;;
3423;SDS011;72707;50.120;8.500;2024-02-21T05:21:31;11.40;;;7.73;;
3423;SDS011;72707;50.120;8.500;2024-02-21T05:23:57;34.80;;;31.57;;
3423;SDS011;72707;50.120;8.500;2024-02-21T05:26:23;37.90;;;34.43;;
3423;SDS011;72707;50.120;8.500;2024-02-21T05:28:50;11.67;;;7.03;;
3423;SDS011;72707;50.120;8.500;2024-02-21T05:31:20;9.50;;;7.03;;
3423;SDS011;72707;50.120;8.500;2024-02-21T05:33:46;26.07;;;9.60;;
3423;SDS011;72707;50.120;8.500;2024-02-21T05:36:12;13.53;;;6.50;;
3423;SDS011;72707;50.120;8.500;2024-02-21T05:38:41;15.83;;;11.83;;
3423;SDS011;72707;50.120;8.500;2024-02-21T05:41:07;28.30;;;25.57;;
3423;SDS011;72707;50.120;8.500;2024-02-21T05:43:33;25.93;;;23.93;;
3423;SDS011;72707;50.120;8.500;2024-02-21T05:45:58;10.53;;;5.93;;
3423;SDS011;72707;50.120;8.500;2024-02-21T05:48:24;15.83;;;5.73;;
3423;SDS011;72707;50.120;8.500;2024-02-21T05:50:49;18.27;;;16.63;;
3423;SDS011;72707;50.120;8.500;2024-02-21T05:53:16;18.53;;;6.47;;
3423;SDS011;72707;50.120;8.500;2024-02-21T05:55:41;24.67;;;22.23;;
3423;SDS011;72707;50.120;8.500;2024-02-21T05:58:08;121.70;;;22.87;;
3423;SDS011;72707;50.120;8.500;2024-02-21T06:00:38;100.13;;;16.33;;
3423;SDS011;72707;50.120;8.500;2024-02-21T06:03:04;20.97;;;7.10;;
3423;SDS011;72707;50.120;8.500;2024-02-21T06:05:35;73.97;;;28.50;;
3423;SDS011;72707;50.120;8.500;2024-02-21T06:08:01;20.20;;;18.10;;
3423;SDS011;72707;50.120;8.500;2024-02-21T06:10:29;12.67;;;9.07;;
3423;SDS011;72707;50.120;8.500;2024-02-21T06:12:55;15.67;;;6.30;;
3423;SDS011;72707;50.120;8.500;2024-02-21T06:15:21;15.73;;;10.63;;
3423;SDS011;72707;50.120;8.500;2024-02-21T06:17:47;18.17;;;14.93;;
3423;SDS011;72707;50.120;8.500;2024-02-21T06:20:15;14.30;;;12.83;;
3423;SDS011;72707;50.120;8.500;2024-02-21T06:22:41;23.00;;;18.17;;
3423;SDS011;72707;50.120;8.500;2024-02-21T06:25:07;112.27;;;42.60;;
3423;SDS011;72707;50.120;8.500;2024-02-21T06:27:35;16.87;;;15.27;;
3423;SDS011;72707;50.120;8.500;2024-02-21T06:30:01;28.73;;;23.37;;
3423;SDS011;72707;50.120;8.500;2024-02-21T06:32:28;21.20;;;9.20;;
3423;SDS011;72707;50.120;8.500;2024-02-21T06:34:54;16.63;;;7.80;;
3423;SDS011;72707;50.120;8.500;2024-02-21T06:37:19;18.80;;;7.77;;
3423;SDS011;72707;50.120;8.500;2024-02-21T06:39:45;28.53;;;18.53;;
3423;SDS011;72707;50.120;8.500;2024-02-21T06:42:10;22.07;;;14.57;;
3423;SDS011;72707;50.120;8.500;2024-02-21T06:44:36;14.20;;;12.83;;
3423;SDS011;72707;50.120;8.500;2024-02-21T06:47:05;11.27;;;8.33;;
3423;SDS011;72707;50.120;8.500;2024-02-21T06:49:31;21.80;;;8.53;;
3423;SDS011;72707;50.120;8.500;2024-02-21T06:51:56;12.70;;;11.57;;
3423;SDS011;72707;50.120;8.500;2024-02-21T06:54:22;12.30;;;7.70;;
3423;SDS011;72707;50.120;8.500;2024-02-21T06:56:48;12.47;;;7.20;;
3423;SDS011;72707;50.120;8.500;2024-02-21T06:59:14;46.47;;;41.73;;
3423;SDS011;72707;50.120;8.500;2024-02-21T07:01:44;43.17;;;33.67;;
3423;SDS011;72707;50.120;8.500;2024-02-21T07:04:10;14.70;;;11.40;;
3423;SDS011;72707;50.120;8.500;2024-02-21T07:06:36;23.50;;;14.57;;
3423;SDS011;72707;50.120;8.500;2024-02-21T07:09:02;18.57;;;11.67;;
3423;SDS011;72707;50.120;8.500;2024-02-21T07:11:27;49.73;;;44.30;;
3423;SDS011;72707;50.120;8.500;2024-02-21T07:13:53;21.37;;;13.87;;
3423;SDS011;72707;50.120;8.500;2024-02-21T07:16:18;19.33;;;13.10;;
3423;SDS011;72707;50.120;8.500;2024-02-21T07:18:44;20.60;;;15.63;;
3423;SDS011;72707;50.120;8.500;2024-02-21T07:21:10;41.67;;;37.67;;
3423;SDS011;72707;50.120;8.500;2024-02-21T07:23:35;51.67;;;46.30;;
3423;SDS011;72707;50.120;8.500;2024-02-21T07:26:01;18.20;;;15.10;;
3423;SDS011;72707;50.120;8.500;2024-02-21T07:28:26;15.97;;;13.93;;
3423;SDS011;72707;50.120;8.500;2024-02-21T07:30:51;16.83;;;15.33;;
3423;SDS011;72707;50.120;8.500;2024-02-21T07:33:17;45.53;;;41.13;;
3423;SDS011;72707;50.120;8.500;2024-02-21T07:35:42;54.20;;;47.37;;
3423;SDS011;72707;50.120;8.500;2024-02-21T07:38:09;52.53;;;46.13;;
3423;SDS011;72707;50.120;8.500;2024-02-21T07:40:37;50.37;;;39.83;;
3423;SDS011;72707;50.120;8.500;2024-02-21T07:43:03;40.00;;;36.47;;
3423;SDS011;72707;50.120;8.500;2024-02-21T07:45:28;48.57;;;42.27;;
3423;SDS011;72707;50.120;8.500;2024-02-21T07:47:54;39.13;;;35.53;;
3423;SDS011;72707;50.120;8.500;2024-02-21T07:50:19;47.10;;;40.83;;
3423;SDS011;72707;50.120;8.500;2024-02-21T07:52:45;33.70;;;31.00;;
3423;SDS011;72707;50.120;8.500;2024-02-21T07:55:10;50.53;;;45.47;;
3423;SDS011;72707;50.120;8.500;2024-02-21T07:57:36;43.73;;;39.43;;
3423;SDS011;72707;50.120;8.500;2024-02-21T08:00:02;45.20;;;40.37;;
3423;SDS011;72707;50.120;8.500;2024-02-21T08:02:34;51.77;;;45.10;;
3423;SDS011;72707;50.120;8.500;2024-02-21T08:05:00;36.73;;;33.13;;
3423;SDS011;72707;50.120;8.500;2024-02-21T08:07:25;40.10;;;36.57;;
3423;SDS011;72707;50.120;8.500;2024-02-21T08:09:53;40.97;;;37.27;;
3423;SDS011;72707;50.120;8.500;2024-02-21T08:12:19;47.80;;;42.40;;
3423;SDS011;72707;50.120;8.500;2024-02-21T08:14:44;50.10;;;45.20;;
3423;SDS011;72707;50.120;8.500;2024-02-21T08:17:10;37.10;;;33.63;;
3423;SDS011;72707;50.120;8.500;2024-02-21T08:19:36;36.40;;;32.73;;
3423;SDS011;72707;50.120;8.500;2024-02-21T08:22:01;48.20;;;43.20;;
3423;SDS011;72707;50.120;8.500;2024-02-21T08:24:28;39.73;;;35.97;;
3423;SDS011;72707;50.120;8.500;2024-02-21T08:26:53;41.23;;;37.57;;
3423;SDS011;72707;50.120;8.500;2024-02-21T08:29:19;37.57;;;34.13;;
3423;SDS011;72707;50.120;8.500;2024-02-21T08:31:45;40.20;;;36.43;;
3423;SDS011;72707;50.120;8.500;2024-02-21T08:34:10;43.30;;;38.83;;
3423;SDS011;72707;50.120;8.500;2024-02-21T08:36:36;31.80;;;29.13;;
3423;SDS011;72707;50.120;8.500;2024-02-21T08:39:02;53.87;;;48.20;;
3423;SDS011;72707;50.120;8.500;2024-02-21T08:41:30;32.70;;;30.20;;
3423;SDS011;72707;50.120;8.500;2024-02-21T08:43:56;45.00;;;14.87;;
3423;SDS011;72707;50.120;8.500;2024-02-21T08:46:22;79.30;;;49.57;;
3423;SDS011;72707;50.120;8.500;2024-02-21T08:48:49;109.70;;;72.03;;
3423;SDS011;72707;50.120;8.500;2024-02-21T08:51:16;99.50;;;69.63;;
3423;SDS011;72707;50.120;8.500;2024-02-21T08:53:41;64.23;;;57.17;;
3423;SDS011;72707;50.120;8.500;2024-02-21T08:56:07;20.67;;;10.03;;
3423;SDS011;72707;50.120;8.500;2024-02-21T08:58:32;16.77;;;10.83;;
3423;SDS011;72707;50.120;8.500;2024-02-21T09:00:58;15.27;;;7.30;;
3423;SDS011;72707;50.120;8.500;2024-02-21T09:03:24;24.80;;;10.93;;
3423;SDS011;72707;50.120;8.500;2024-02-21T09:05:50;23.60;;;21.50;;
3423;SDS011;72707;50.120;8.500;2024-02-21T09:08:16;21.10;;;8.17;;
3423;SDS011;72707;50.120;8.500;2024-02-21T09:13:17;117.15;;;20.65;;
3423;SDS011;72707;50.120;8.500;2024-02-21T09:20:54;7.07;;;4.20;;
3423;SDS011;72707;50.120;8.500;2024-02-21T09:23:20;11.93;;;4.93;;
3423;SDS011;72707;50.120;8.500;2024-02-21T09:25:49;11.37;;;6.23;;
3423;SDS011;72707;50.120;8.500;2024-02-21T09:28:15;8.70;;;4.43;;
3423;SDS011;72707;50.120;8.500;2024-02-21T09:30:40;13.17;;;12.03;;
3423;SDS011;72707;50.120;8.500;2024-02-21T09:33:06;11.67;;;5.77;;
3423;SDS011;72707;50.120;8.500;2024-02-21T09:35:32;11.10;;;5.87;;
3423;SDS011;72707;50.120;8.500;2024-02-21T09:37:58;10.10;;;5.27;;
3423;SDS011;72707;50.120;8.500;2024-02-21T09:40:24;19.87;;;8.03;;
3423;SDS011;72707;50.120;8.500;2024-02-21T09:42:52;6.87;;;3.70;;
3423;SDS011;72707;50.120;8.500;2024-02-21T09:45:27;46.47;;;41.53;;
3423;SDS011;72707;50.120;8.500;2024-02-21T09:50:38;13.50;;;6.97;;
3423;SDS011;72707;50.120;8.500;2024-02-21T09:53:08;24.60;;;19.87;;
3423;SDS011;72707;50.120;8.500;2024-02-21T09:55:36;8.10;;;4.67;;
3423;SDS011;72707;50.120;8.500;2024-02-21T09:58:05;11.53;;;4.90;;
3423;SDS011;72707;50.120;8.500;2024-02-21T10:00:31;19.23;;;18.03;;
3423;SDS011;72707;50.120;8.500;2024-02-21T10:02:56;14.37;;;11.23;;
3423;SDS011;72707;50.120;8.500;2024-02-21T10:05:23;6.60;;;4.43;;
3423;SDS011;72707;50.120;8.500;2024-02-21T10:07:49;5.73;;;4.20;;
3423;SDS011;72707;50.120;8.500;2024-02-21T10:10:16;7.40;;;5.73;;
3423;SDS011;72707;50.120;8.500;2024-02-21T10:12:48;29.47;;;21.50;;
3423;SDS011;72707;50.120;8.500;2024-02-21T10:15:22;9.17;;;6.00;;
3423;SDS011;72707;50.120;8.500;2024-02-21T10:17:58;11.80;;;7.13;;
3423;SDS011;72707;50.120;8.500;2024-02-21T10:20:25;11.50;;;6.93;;
3423;SDS011;72707;50.120;8.500;2024-02-21T10:23:00;34.60;;;12.07;;
3423;SDS011;72707;50.120;8.500;2024-02-21T10:25:31;28.37;;;26.37;;
3423;SDS011;72707;50.120;8.500;2024-02-21T10:30:33;8.03;;;5.67;;
3423;SDS011;72707;50.120;8.500;2024-02-21T10:32:59;11.73;;;6.73;;
3423;SDS011;72707;50.120;8.500;2024-02-21T10:35:28;109.70;;;59.10;;
3423;SDS011;72707;50.120;8.500;2024-02-21T10:37:55;67.33;;;17.23;;
3423;SDS011;72707;50.120;8.500;2024-02-21T10:40:28;100.83;;;22.20;;
3423;SDS011;72707;50.120;8.500;2024-02-21T10:42:58;21.53;;;10.13;;
3423;SDS011;72707;50.120;8.500;2024-02-21T10:45:30;16.10;;;14.70;;
3423;SDS011;72707;50.120;8.500;2024-02-21T10:48:08;11.97;;;8.40;;
3423;SDS011;72707;50.120;8.500;2024-02-21T10:53:16;11.30;;;9.00;;
3423;SDS011;72707;50.120;8.500;2024-02-21T10:55:58;62.23;;;56.20;;
3423;SDS011;72707;50.120;8.500;2024-02-21T10:58:49;16.90;;;9.43;;
3423;SDS011;72707;50.120;8.500;2024-02-21T11:06:26;14.10;;;11.67;;
3423;SDS011;72707;50.120;8.500;2024-02-21T11:11:30;21.50;;;19.93;;
3423;SDS011;72707;50.120;8.500;2024-02-21T11:16:39;21.00;;;19.27;;
3423;SDS011;72707;50.120;8.500;2024-02-21T11:21:41;82.90;;;73.77;;
3423;SDS011;72707;50.120;8.500;2024-02-21T11:24:06;40.47;;;36.47;;
3423;SDS011;72707;50.120;8.500;2024-02-21T11:26:32;68.57;;;61.77;;
3423;SDS011;72707;50.120;8.500;2024-02-21T11:31:40;19.10;;;16.93;;
3423;SDS011;72707;50.120;8.500;2024-02-21T11:34:10;18.63;;;17.03;;
3423;SDS011;72707;50.120;8.500;2024-02-21T11:36:36;16.77;;;15.00;;
3423;SDS011;72707;50.120;8.500;2024-02-21T11:39:19;85.77;;;77.23;;
3423;SDS011;72707;50.120;8.500;2024-02-21T11:44:22;63.33;;;40.37;;
3423;SDS011;72707;50.120;8.500;2024-02-21T11:46:47;26.07;;;24.07;;
3423;SDS011;72707;50.120;8.500;2024-02-21T11:49:14;23.97;;;20.83;;
3423;SDS011;72707;50.120;8.500;2024-02-21T11:51:39;97.03;;;76.93;;
3423;SDS011;72707;50.120;8.500;2024-02-21T11:54:05;162.45;;;98.30;;
3423;SDS011;72707;50.120;8.500;2024-02-21T11:56:31;94.53;;;84.33;;
3423;SDS011;72707;50.120;8.500;2024-02-21T11:58:59;97.27;;;86.63;;
3423;SDS011;72707;50.120;8.500;2024-02-21T12:01:24;104.20;;;89.53;;
3423;SDS011;72707;50.120;8.500;2024-02-21T12:03:50;107.90;;;92.43;;
3423;SDS011;72707;50.120;8.500;2024-02-21T12:06:16;132.13;;;99.13;;
3423;SDS011;72707;50.120;8.500;2024-02-21T12:08:46;119.77;;;96.47;;
3423;SDS011;72707;50.120;8.500;2024-02-21T12:11:16;115.57;;;94.27;;
3423;SDS011;72707;50.120;8.500;2024-02-21T12:13:46;114.60;;;96.60;;
3423;SDS011;72707;50.120;8.500;2024-02-21T12:16:14;105.53;;;93.77;;
3423;SDS011;72707;50.120;8.500;2024-02-21T12:18:41;114.17;;;97.23;;
3423;SDS011;72707;50.120;8.500;2024-02-21T12:21:06;115.53;;;100.40;;
3423;SDS011;72707;50.120;8.500;2024-02-21T12:23:32;119.53;;;103.90;;
3423;SDS011;72707;50.120;8.500;2024-02-21T12:25:59;114.93;;;99.53;;
3423;SDS011;72707;50.120;8.500;2024-02-21T12:28:24;119.73;;;100.80;;
3423;SDS011;72707;50.120;8.500;2024-02-21T12:30:51;137.27;;;110.60;;
3423;SDS011;72707;50.120;8.500;2024-02-21T12:33:17;113.30;;;99.87;;
3423;SDS011;72707;50.120;8.500;2024-02-21T12:35:43;120.03;;;104.80;;
3423;SDS011;72707;50.120;8.500;2024-02-21T12:38:09;125.33;;;105.93;;
3423;SDS011;72707;50.120;8.500;2024-02-21T12:40:36;107.20;;;95.60;;
3423;SDS011;72707;50.120;8.500;2024-02-21T12:43:01;107.30;;;96.40;;
3423;SDS011;72707;50.120;8.500;2024-02-21T12:45:28;115.83;;;101.97;;
3423;SDS011;72707;50.120;8.500;2024-02-21T12:47:53;105.80;;;94.73;;
3423;SDS011;72707;50.120;8.500;2024-02-21T12:50:19;111.07;;;96.83;;
3423;SDS011;72707;50.120;8.500;2024-02-21T12:52:45;101.53;;;90.87;;
3423;SDS011;72707;50.120;8.500;2024-02-21T12:55:11;116.57;;;97.50;;
3423;SDS011;72707;50.120;8.500;2024-02-21T12:57:38;99.10;;;88.33;;
3423;SDS011;72707;50.120;8.500;2024-02-21T13:00:04;107.47;;;94.77;;
3423;SDS011;72707;50.120;8.500;2024-02-21T13:02:33;123.40;;;97.17;;
3423;SDS011;72707;50.120;8.500;2024-02-21T13:04:59;110.07;;;94.93;;
3423;SDS011;72707;50.120;8.500;2024-02-21T13:07:27;99.10;;;88.40;;
3423;SDS011;72707;50.120;8.500;2024-02-21T13:09:53;101.47;;;90.37;;
3423;SDS011;72707;50.120;8.500;2024-02-21T13:12:19;101.77;;;91.13;;
3423;SDS011;72707;50.120;8.500;2024-02-21T13:14:44;107.10;;;94.87;;
3423;SDS011;72707;50.120;8.500;2024-02-21T13:17:10;106.63;;;93.27;;
3423;SDS011;72707;50.120;8.500;2024-02-21T13:19:35;112.53;;;99.57;;
3423;SDS011;72707;50.120;8.500;2024-02-21T13:22:01;104.17;;;93.13;;
3423;SDS011;72707;50.120;8.500;2024-02-21T13:24:27;106.97;;;95.87;;
3423;SDS011;72707;50.120;8.500;2024-02-21T13:26:53;109.50;;;98.07;;
3423;SDS011;72707;50.120;8.500;2024-02-21T13:29:18;118.13;;;101.80;;
3423;SDS011;72707;50.120;8.500;2024-02-21T13:31:45;115.57;;;100.10;;
3423;SDS011;72707;50.120;8.500;2024-02-21T13:34:11;132.77;;;109.23;;
3423;SDS011;72707;50.120;8.500;2024-02-21T13:36:36;115.50;;;102.17;;
3423;SDS011;72707;50.120;8.500;2024-02-21T13:39:02;129.77;;;103.37;;
3423;SDS011;72707;50.120;8.500;2024-02-21T13:41:30;135.10;;;109.83;;
3423;SDS011;72707;50.120;8.500;2024-02-21T13:43:56;127.77;;;106.00;;
3423;SDS011;72707;50.120;8.500;2024-02-21T13:46:21;117.57;;;102.13;;
3423;SDS011;72707;50.120;8.500;2024-02-21T13:48:47;122.07;;;104.17;;
3423;SDS011;72707;50.120;8.500;2024-02-21T13:51:12;126.00;;;107.93;;
3423;SDS011;72707;50.120;8.500;2024-02-21T13:53:39;133.77;;;107.93;;
3423;SDS011;72707;50.120;8.500;2024-02-21T13:56:04;119.50;;;105.87;;
3423;SDS011;72707;50.120;8.500;2024-02-21T13:58:30;135.87;;;115.67;;
3423;SDS011;72707;50.120;8.500;2024-02-21T14:00:56;127.30;;;112.17;;
3423;SDS011;72707;50.120;8.500;2024-02-21T14:03:21;137.30;;;117.20;;
3423;SDS011;72707;50.120;8.500;2024-02-21T14:05:47;198.30;;;127.93;;
3423;SDS011;72707;50.120;8.500;2024-02-21T14:08:16;131.10;;;111.57;;
3423;SDS011;72707;50.120;8.500;2024-02-21T14:10:41;136.03;;;117.43;;
3423;SDS011;72707;50.120;8.500;2024-02-21T14:13:07;216.60;;;130.40;;
3423;SDS011;72707;50.120;8.500;2024-02-21T14:18:09;128.80;;;108.70;;
3423;SDS011;72707;50.120;8.500;2024-02-21T14:20:34;124.40;;;106.03;;
3423;SDS011;72707;50.120;8.500;2024-02-21T14:23:01;123.63;;;109.43;;
3423;SDS011;72707;50.120;8.500;2024-02-21T14:25:27;133.13;;;110.43;;
3423;SDS011;72707;50.120;8.500;2024-02-21T14:27:52;119.10;;;104.30;;
3423;SDS011;72707;50.120;8.500;2024-02-21T14:32:49;121.67;;;104.67;;
3423;SDS011;72707;50.120;8.500;2024-02-21T14:35:14;128.17;;;113.03;;
3423;SDS011;72707;50.120;8.500;2024-02-21T14:37:41;160.70;;;125.17;;
3423;SDS011;72707;50.120;8.500;2024-02-21T14:40:06;126.23;;;111.70;;
3423;SDS011;72707;50.120;8.500;2024-02-21T14:42:32;183.67;;;112.53;;
3423;SDS011;72707;50.120;8.500;2024-02-21T14:44:59;133.17;;;113.27;;
3423;SDS011;72707;50.120;8.500;2024-02-21T14:47:29;127.57;;;103.17;;
3423;SDS011;72707;50.120;8.500;2024-02-21T14:49:55;118.27;;;100.20;;
3423;SDS011;72707;50.120;8.500;2024-02-21T14:52:21;125.47;;;106.23;;
3423;SDS011;72707;50.120;8.500;2024-02-21T14:54:47;126.53;;;107.70;;
3423;SDS011;72707;50.120;8.500;2024-02-21T14:57:16;133.83;;;106.07;;
3423;SDS011;72707;50.120;8.500;2024-02-21T14:59:45;129.37;;;104.90;;
3423;SDS011;72707;50.120;8.500;2024-02-21T15:02:11;131.93;;;105.37;;
3423;SDS011;72707;50.120;8.500;2024-02-21T15:04:36;125.03;;;104.73;;
3423;SDS011;72707;50.120;8.500;2024-02-21T15:07:02;124.00;;;103.60;;
3423;SDS011;72707;50.120;8.500;2024-02-21T15:09:28;124.50;;;101.90;;
3423;SDS011;72707;50.120;8.500;2024-02-21T15:11:53;132.27;;;104.10;;
3423;SDS011;72707;50.120;8.500;2024-02-21T15:14:19;111.37;;;94.57;;
3423;SDS011;72707;50.120;8.500;2024-02-21T15:16:45;120.57;;;99.30;;
3423;SDS011;72707;50.120;8.500;2024-02-21T15:19:11;114.10;;;99.77;;